createdAt,value
2018-03-03T00:00:13.383Z,231.97
2018-03-03T00:02:42.564Z,218.40
2018-03-03T00:05:11.709Z,226.30
2018-03-03T00:07:40.850Z,231.07
2018-03-03T00:10:09.997Z,224.97
2018-03-03T00:12:39.146Z,221.60
2018-03-03T00:15:08.330Z,226.77
2018-03-03T00:17:37.479Z,232.17
2018-03-03T00:20:06.654Z,228.40
2018-03-03T00:22:40.802Z,227.33
2018-03-03T00:25:09.963Z,235.03
2018-03-03T00:27:39.126Z,234.63
2018-03-03T00:30:08.283Z,240.70
2018-03-03T00:32:37.482Z,234.03
2018-03-03T00:35:06.623Z,245.10
2018-03-03T00:37:35.772Z,246.73
2018-03-03T00:40:05.113Z,224.57
2018-03-03T00:42:34.270Z,234.13
2018-03-03T00:45:03.405Z,248.60
2018-03-03T00:47:32.581Z,240.47
2018-03-03T00:50:01.742Z,243.87
2018-03-03T00:52:30.885Z,245.10
2018-03-03T00:55:00.054Z,243.37
2018-03-03T00:57:29.204Z,247.33
2018-03-03T00:59:58.340Z,239.30
2018-03-03T01:02:27.505Z,254.77
2018-03-03T01:04:56.645Z,249.93
2018-03-03T01:07:25.782Z,241.40
2018-03-03T01:09:54.957Z,241.97
2018-03-03T01:12:24.101Z,260.50
2018-03-03T01:14:53.273Z,243.77
2018-03-03T01:17:22.487Z,258.10
2018-03-03T01:19:51.630Z,256.53
2018-03-03T01:22:20.768Z,268.73
2018-03-03T01:24:49.946Z,272.33
2018-03-03T01:27:19.085Z,264.87
2018-03-03T01:29:48.214Z,261.37
2018-03-03T01:32:17.399Z,277.00
2018-03-03T01:34:46.558Z,270.40
2018-03-03T01:37:15.698Z,273.40
2018-03-03T01:39:44.865Z,296.17
2018-03-03T01:42:14.026Z,284.93
2018-03-03T01:44:43.173Z,271.63
2018-03-03T01:47:12.338Z,273.80
2018-03-03T01:49:41.479Z,267.63
2018-03-03T01:52:10.654Z,272.20
2018-03-03T01:54:39.810Z,274.67
2018-03-03T01:57:08.989Z,269.97
2018-03-03T01:59:38.128Z,264.97
2018-03-03T02:02:07.279Z,265.37
2018-03-03T02:04:36.462Z,273.60
2018-03-03T02:07:05.607Z,274.97
2018-03-03T02:09:34.775Z,268.73
2018-03-03T02:12:04.351Z,264.23
2018-03-03T02:14:33.513Z,258.83
2018-03-03T02:17:02.665Z,261.87
2018-03-03T02:19:31.949Z,279.50
2018-03-03T02:22:01.102Z,263.90
2018-03-03T02:24:30.251Z,256.17
2018-03-03T02:26:59.416Z,254.37
2018-03-03T02:29:28.570Z,261.60
2018-03-03T02:31:57.728Z,246.80
2018-03-03T02:34:26.914Z,276.67
2018-03-03T02:36:56.043Z,277.70
2018-03-03T02:39:25.203Z,267.90
2018-03-03T02:41:54.379Z,276.30
2018-03-03T02:44:23.543Z,279.07
2018-03-03T02:46:52.686Z,275.10
2018-03-03T02:49:21.870Z,260.00
2018-03-03T02:51:51.036Z,247.87
2018-03-03T02:54:20.190Z,247.03
2018-03-03T02:56:49.330Z,244.10
2018-03-03T02:59:18.495Z,264.77
2018-03-03T03:01:47.694Z,271.97
2018-03-03T03:04:16.837Z,247.13
2018-03-03T03:06:45.982Z,262.10
2018-03-03T03:09:15.167Z,241.80
2018-03-03T03:11:44.350Z,257.10
2018-03-03T03:14:13.686Z,266.30
2018-03-03T03:16:42.842Z,282.70
2018-03-03T03:19:11.981Z,273.30
2018-03-03T03:21:41.186Z,262.80
2018-03-03T03:24:10.336Z,264.17
2018-03-03T03:26:39.517Z,268.00
2018-03-03T03:29:08.728Z,289.27
2018-03-03T03:31:37.874Z,252.80
2018-03-03T03:34:07.063Z,239.40
2018-03-03T03:36:36.225Z,265.23
2018-03-03T03:39:05.382Z,230.53
2018-03-03T03:41:34.574Z,226.33
2018-03-03T03:44:03.760Z,219.90
2018-03-03T03:46:32.959Z,203.50
2018-03-03T03:49:02.125Z,202.47
2018-03-03T03:51:31.353Z,187.80
2018-03-03T03:54:00.502Z,205.93
2018-03-03T03:56:29.694Z,180.37
2018-03-03T03:58:58.834Z,194.23
2018-03-03T04:01:27.987Z,225.70
2018-03-03T04:03:57.141Z,220.80
2018-03-03T04:06:26.281Z,258.57
2018-03-03T04:08:55.430Z,245.23
2018-03-03T04:11:24.603Z,256.83
2018-03-03T04:13:53.737Z,261.77
2018-03-03T04:16:22.878Z,223.70
2018-03-03T04:18:52.113Z,251.70
2018-03-03T04:21:21.262Z,269.20
2018-03-03T04:23:50.423Z,248.47
2018-03-03T04:26:19.627Z,256.90
2018-03-03T04:28:48.766Z,266.97
2018-03-03T04:31:17.906Z,252.67
2018-03-03T04:33:47.103Z,256.93
2018-03-03T04:36:16.245Z,234.17
2018-03-03T04:38:45.396Z,257.90
2018-03-03T04:41:14.554Z,241.20
2018-03-03T04:43:43.693Z,256.70
2018-03-03T04:46:12.835Z,249.27
2018-03-03T04:48:42.057Z,251.47
2018-03-03T04:51:11.218Z,237.30
2018-03-03T04:53:40.362Z,290.67
2018-03-03T04:56:09.526Z,265.93
2018-03-03T04:58:41.547Z,262.93
2018-03-03T05:01:10.718Z,253.53
2018-03-03T05:03:43.730Z,252.77
2018-03-03T05:06:14.450Z,261.00
2018-03-03T05:08:43.595Z,241.10
2018-03-03T05:11:14.620Z,243.10
2018-03-03T05:13:43.790Z,236.07
2018-03-03T05:16:15.646Z,248.63
2018-03-03T05:19:02.550Z,251.13
2018-03-03T05:21:37.419Z,246.33
2018-03-03T05:24:07.410Z,252.13
2018-03-03T05:26:42.268Z,268.63
2018-03-03T05:29:17.093Z,271.57
2018-03-03T05:32:07.002Z,250.77
2018-03-03T05:34:41.820Z,190.63
2018-03-03T05:37:26.676Z,243.93
2018-03-03T05:39:56.630Z,234.43
2018-03-03T05:42:31.458Z,224.57
2018-03-03T05:45:06.246Z,206.37
2018-03-03T05:47:41.157Z,225.87
2018-03-03T05:50:11.061Z,250.87
2018-03-03T05:52:45.977Z,224.00
2018-03-03T05:58:23.685Z,228.97
2018-03-03T06:00:58.670Z,235.53
2018-03-03T06:03:35.502Z,231.17
2018-03-03T06:06:10.362Z,244.00
2018-03-03T06:08:43.446Z,226.23
2018-03-03T06:11:12.611Z,217.63
2018-03-03T06:13:41.831Z,240.40
2018-03-03T06:16:10.968Z,235.67
2018-03-03T06:18:40.150Z,247.80
2018-03-03T06:21:09.295Z,194.17
2018-03-03T06:23:38.425Z,174.97
2018-03-03T06:26:07.606Z,170.90
2018-03-03T06:28:36.743Z,167.20
2018-03-03T06:31:05.891Z,163.23
2018-03-03T06:33:35.089Z,153.73
2018-03-03T06:36:04.265Z,139.57
2018-03-03T06:38:33.415Z,161.67
2018-03-03T06:41:02.588Z,187.33
2018-03-03T06:43:31.722Z,168.60
2018-03-03T06:46:00.861Z,154.53
2018-03-03T06:48:30.036Z,147.13
2018-03-03T06:50:59.200Z,169.07
2018-03-03T06:53:28.338Z,158.23
2018-03-03T06:55:57.520Z,175.83
2018-03-03T06:58:26.692Z,148.57
2018-03-03T07:00:55.843Z,175.60
2018-03-03T07:03:25.001Z,144.07
2018-03-03T07:05:54.163Z,149.17
2018-03-03T07:08:23.393Z,143.53
2018-03-03T07:10:52.629Z,150.50
2018-03-03T07:13:21.781Z,142.23
2018-03-03T07:15:50.932Z,158.27
2018-03-03T07:18:20.080Z,162.00
2018-03-03T07:20:49.269Z,140.40
2018-03-03T07:23:18.406Z,139.10
2018-03-03T07:25:47.543Z,131.67
2018-03-03T07:28:16.777Z,134.33
2018-03-03T07:30:45.894Z,135.67
2018-03-03T07:33:15.083Z,126.03
2018-03-03T07:35:44.233Z,130.97
2018-03-03T07:38:13.372Z,136.77
2018-03-03T07:40:42.572Z,142.57
2018-03-03T07:43:11.722Z,141.77
2018-03-03T07:45:40.930Z,140.33
2018-03-03T07:48:10.091Z,139.93
2018-03-03T07:50:39.249Z,129.57
2018-03-03T07:53:08.422Z,143.37
2018-03-03T07:55:37.561Z,136.13
2018-03-03T07:58:06.704Z,140.07
2018-03-03T08:00:35.885Z,142.50
2018-03-03T08:03:05.033Z,149.20
2018-03-03T08:05:34.192Z,146.10
2018-03-03T08:08:03.365Z,133.60
2018-03-03T08:10:32.515Z,148.23
2018-03-03T08:13:01.709Z,138.40
2018-03-03T08:15:30.874Z,139.83
2018-03-03T08:18:00.026Z,141.40
2018-03-03T08:20:29.174Z,138.40
2018-03-03T08:22:58.344Z,146.43
2018-03-03T08:25:27.485Z,135.90
2018-03-03T08:27:56.632Z,145.13
2018-03-03T08:30:26.265Z,159.07
2018-03-03T08:32:55.409Z,138.27
2018-03-03T08:35:24.542Z,134.90
2018-03-03T08:37:53.709Z,135.60
2018-03-03T08:40:22.889Z,135.13
2018-03-03T08:42:52.026Z,141.73
2018-03-03T08:45:21.214Z,130.90
2018-03-03T08:47:50.347Z,132.83
2018-03-03T08:50:19.510Z,167.13
2018-03-03T08:52:48.702Z,123.70
2018-03-03T08:55:17.850Z,128.90
2018-03-03T08:57:47.029Z,122.90
2018-03-03T09:00:16.186Z,129.10
2018-03-03T09:02:45.662Z,133.70
2018-03-03T09:05:15.039Z,121.10
2018-03-03T09:07:44.194Z,134.83
2018-03-03T09:10:13.430Z,128.63
2018-03-03T09:12:42.574Z,155.83
2018-03-03T09:15:11.721Z,149.27
2018-03-03T09:17:40.922Z,150.47
2018-03-03T09:20:10.069Z,163.60
2018-03-03T09:22:39.222Z,131.73
2018-03-03T09:25:08.400Z,136.97
2018-03-03T09:27:37.551Z,129.77
2018-03-03T09:30:06.699Z,131.60
2018-03-03T09:32:36.312Z,126.20
2018-03-03T09:35:05.463Z,120.20
2018-03-03T09:37:34.614Z,125.63
2018-03-03T09:40:03.796Z,127.30
2018-03-03T09:42:32.955Z,122.87
2018-03-03T09:45:02.113Z,122.33
2018-03-03T09:47:31.287Z,121.97
2018-03-03T09:50:00.431Z,119.37
2018-03-03T09:52:29.613Z,118.10
2018-03-03T09:54:58.770Z,118.70
2018-03-03T09:57:27.945Z,121.90
2018-03-03T09:59:57.092Z,129.33
2018-03-03T10:02:26.297Z,142.17
2018-03-03T10:04:55.446Z,129.60
2018-03-03T10:07:24.616Z,119.73
2018-03-03T10:09:53.803Z,124.87
2018-03-03T10:12:22.954Z,128.70
2018-03-03T10:14:52.150Z,119.33
2018-03-03T10:17:21.333Z,121.83
2018-03-03T10:19:50.474Z,114.07
2018-03-03T10:22:19.622Z,118.17
2018-03-03T10:24:48.801Z,114.93
2018-03-03T10:27:18.049Z,125.27
2018-03-03T10:29:47.087Z,115.13
2018-03-03T10:32:16.270Z,118.50
2018-03-03T10:34:45.452Z,120.73
2018-03-03T10:37:14.633Z,117.47
2018-03-03T10:39:43.811Z,111.97
2018-03-03T10:42:12.933Z,117.37
2018-03-03T10:44:42.136Z,120.17
2018-03-03T10:47:11.276Z,121.23
2018-03-03T10:49:40.644Z,115.83
2018-03-03T10:52:09.802Z,124.00
2018-03-03T10:54:38.934Z,114.23
2018-03-03T10:57:08.081Z,113.50
2018-03-03T10:59:37.259Z,125.77
2018-03-03T11:02:06.416Z,116.40
2018-03-03T11:04:35.569Z,114.20
2018-03-03T11:07:04.752Z,124.00
2018-03-03T11:09:33.898Z,120.20
2018-03-03T11:12:03.050Z,117.30
2018-03-03T11:14:32.213Z,132.47
2018-03-03T11:17:01.406Z,113.87
2018-03-03T11:19:30.533Z,113.37
2018-03-03T11:21:59.722Z,112.60
2018-03-03T11:24:28.902Z,111.17
2018-03-03T11:26:58.091Z,114.57
2018-03-03T11:29:27.244Z,111.90
2018-03-03T11:31:56.383Z,116.37
2018-03-03T11:34:25.564Z,107.53
2018-03-03T11:36:54.706Z,120.70
2018-03-03T11:39:23.850Z,114.87
2018-03-03T11:41:53.066Z,119.70
2018-03-03T11:44:22.173Z,120.63
2018-03-03T11:46:51.318Z,113.20
2018-03-03T11:49:20.500Z,124.47
2018-03-03T11:51:49.692Z,115.77
2018-03-03T11:54:18.879Z,112.83
2018-03-03T11:56:48.025Z,133.30
2018-03-03T11:59:17.185Z,110.77
2018-03-03T12:01:46.361Z,113.17
2018-03-03T12:04:15.514Z,115.03
2018-03-03T12:06:44.662Z,115.40
2018-03-03T12:09:13.836Z,120.40
2018-03-03T12:11:42.978Z,114.67
2018-03-03T12:14:12.128Z,112.17
2018-03-03T12:16:41.302Z,111.17
2018-03-03T12:19:10.463Z,106.30
2018-03-03T12:21:39.610Z,105.40
2018-03-03T12:24:08.786Z,110.60
2018-03-03T12:26:37.933Z,104.53
2018-03-03T12:29:07.069Z,113.27
2018-03-03T12:31:36.566Z,106.20
2018-03-03T12:34:05.714Z,104.00
2018-03-03T12:36:34.853Z,104.17
2018-03-03T12:39:04.058Z,105.90
2018-03-03T12:41:33.257Z,104.17
2018-03-03T12:44:02.414Z,109.30
2018-03-03T12:46:31.562Z,111.80
2018-03-03T12:49:00.745Z,101.20
2018-03-03T12:51:29.885Z,106.70
2018-03-03T12:53:59.010Z,96.37
2018-03-03T12:56:28.173Z,109.80
2018-03-03T12:58:57.319Z,102.87
2018-03-03T13:01:26.484Z,100.73
2018-03-03T13:03:55.660Z,99.03
2018-03-03T13:06:24.815Z,96.60
2018-03-03T13:08:53.971Z,104.10
2018-03-03T13:11:23.153Z,97.17
2018-03-03T13:13:52.310Z,98.20
2018-03-03T13:16:21.458Z,96.13
2018-03-03T13:18:50.645Z,96.33
2018-03-03T13:21:19.804Z,97.07
2018-03-03T13:23:49.068Z,97.53
2018-03-03T13:26:18.256Z,95.20
2018-03-03T13:28:47.469Z,97.97
2018-03-03T13:31:16.636Z,96.27
2018-03-03T13:33:45.813Z,96.50
2018-03-03T13:36:14.954Z,93.90
2018-03-03T13:38:44.161Z,92.00
2018-03-03T13:41:13.326Z,91.53
2018-03-03T13:43:42.484Z,95.40
2018-03-03T13:46:11.649Z,98.97
2018-03-03T13:48:40.802Z,93.53
2018-03-03T13:51:09.943Z,97.50
2018-03-03T13:53:39.106Z,94.67
2018-03-03T13:56:08.253Z,95.00
2018-03-03T13:58:37.413Z,103.83
2018-03-03T14:01:06.613Z,97.43
2018-03-03T14:03:35.781Z,107.50
2018-03-03T14:06:04.945Z,99.43
2018-03-03T14:08:34.085Z,96.23
2018-03-03T14:11:03.235Z,96.70
2018-03-03T14:13:32.396Z,95.70
2018-03-03T14:16:01.567Z,101.27
2018-03-03T14:18:30.717Z,104.87
2018-03-03T14:20:59.849Z,105.90
2018-03-03T14:23:29.030Z,98.47
2018-03-03T14:25:58.173Z,97.37
2018-03-03T14:28:27.322Z,112.37
2018-03-03T14:30:56.518Z,104.93
2018-03-03T14:33:25.663Z,103.00
2018-03-03T14:35:54.828Z,123.23
2018-03-03T14:38:24.005Z,105.93
2018-03-03T14:40:53.225Z,109.87
2018-03-03T14:43:22.576Z,106.47
2018-03-03T14:45:51.780Z,117.27
2018-03-03T14:48:20.921Z,109.00
2018-03-03T14:50:50.057Z,108.30
2018-03-03T14:53:19.246Z,107.47
2018-03-03T14:55:48.399Z,99.87
2018-03-03T14:58:17.547Z,101.60
2018-03-03T15:00:46.713Z,101.57
2018-03-03T15:03:15.863Z,102.27
2018-03-03T15:05:45.006Z,100.53
2018-03-03T15:08:14.200Z,97.90
2018-03-03T15:10:43.337Z,105.63
2018-03-03T15:13:12.499Z,103.90
2018-03-03T15:15:41.654Z,104.73
2018-03-03T15:18:10.798Z,100.50
2018-03-03T15:20:39.943Z,100.07
2018-03-03T15:23:09.111Z,108.73
2018-03-03T15:25:38.274Z,102.57
2018-03-03T15:28:07.413Z,115.80
2018-03-03T15:30:36.606Z,105.27
2018-03-03T15:33:05.748Z,104.70
2018-03-03T15:35:34.893Z,104.27
2018-03-03T15:38:04.043Z,114.33
2018-03-03T15:40:33.186Z,105.93
2018-03-03T15:43:02.347Z,109.03
2018-03-03T15:45:32.021Z,106.50
2018-03-03T15:48:01.169Z,109.57
2018-03-03T15:50:30.369Z,109.20
2018-03-03T15:52:59.534Z,109.23
2018-03-03T15:55:28.698Z,109.73
2018-03-03T15:57:57.865Z,102.40
2018-03-03T16:00:27.014Z,103.70
2018-03-03T16:02:56.167Z,107.90
2018-03-03T16:05:25.336Z,111.83
2018-03-03T16:07:54.498Z,113.00
2018-03-03T16:10:23.649Z,108.63
2018-03-03T16:12:52.853Z,115.10
2018-03-03T16:15:21.985Z,110.80
2018-03-03T16:17:51.143Z,124.37
2018-03-03T16:20:20.322Z,111.13
2018-03-03T16:22:49.465Z,109.77
2018-03-03T16:25:18.609Z,109.27
2018-03-03T16:27:47.786Z,119.80
2018-03-03T16:30:16.943Z,123.70
2018-03-03T16:32:46.084Z,125.63
2018-03-03T16:35:15.257Z,121.60
2018-03-03T16:37:44.404Z,115.27
2018-03-03T16:40:13.558Z,129.60
2018-03-03T16:42:42.862Z,127.83
2018-03-03T16:45:12.008Z,119.40
2018-03-03T16:47:41.697Z,126.03
2018-03-03T16:50:10.900Z,123.13
2018-03-03T16:52:40.049Z,124.73
2018-03-03T16:55:09.208Z,128.97
2018-03-03T16:57:38.428Z,132.90
2018-03-03T17:00:07.566Z,134.73
2018-03-03T17:02:36.728Z,125.20
2018-03-03T17:05:05.917Z,130.13
2018-03-03T17:07:35.056Z,124.93
2018-03-03T17:10:04.210Z,133.80
2018-03-03T17:12:33.370Z,131.60
2018-03-03T17:15:02.514Z,130.13
2018-03-03T17:17:31.670Z,124.80
2018-03-03T17:20:00.839Z,127.30
2018-03-03T17:22:29.995Z,125.03
2018-03-03T17:24:59.138Z,127.10
2018-03-03T17:27:28.329Z,129.70
2018-03-03T17:29:57.489Z,135.23
2018-03-03T17:32:26.671Z,127.90
2018-03-03T17:34:55.810Z,133.87
2018-03-03T17:37:25.029Z,135.00
2018-03-03T17:39:54.166Z,127.20
2018-03-03T17:42:23.318Z,126.43
2018-03-03T17:44:52.491Z,130.40
2018-03-03T17:47:21.638Z,130.87
2018-03-03T17:49:50.806Z,126.30
2018-03-03T17:52:20.003Z,126.60
2018-03-03T17:54:49.213Z,128.87
2018-03-03T17:57:18.350Z,128.50
2018-03-03T17:59:47.506Z,124.50
2018-03-03T18:02:16.695Z,128.47
2018-03-03T18:04:45.848Z,128.80
2018-03-03T18:07:14.997Z,136.73
2018-03-03T18:09:44.174Z,123.43
2018-03-03T18:12:13.339Z,138.10
2018-03-03T18:14:42.483Z,123.00
2018-03-03T18:17:11.665Z,128.53
2018-03-03T18:19:40.799Z,115.70
2018-03-03T18:22:09.943Z,123.27
2018-03-03T18:24:39.108Z,126.40
2018-03-03T18:27:08.292Z,120.83
2018-03-03T18:29:37.440Z,119.10
2018-03-03T18:32:06.578Z,118.47
2018-03-03T18:34:35.757Z,125.53
2018-03-03T18:37:04.923Z,122.63
2018-03-03T18:39:34.063Z,125.60
2018-03-03T18:42:03.239Z,121.20
2018-03-03T18:44:32.394Z,121.80
2018-03-03T18:47:01.565Z,127.90
2018-03-03T18:49:30.716Z,127.17
2018-03-03T18:51:59.861Z,126.50
2018-03-03T18:54:29.054Z,134.50
2018-03-03T18:56:58.270Z,130.23
2018-03-03T18:59:27.438Z,124.50
2018-03-03T19:01:56.628Z,118.50
2018-03-03T19:04:25.858Z,126.90
2018-03-03T19:06:54.973Z,120.07
2018-03-03T19:09:24.122Z,133.10
2018-03-03T19:11:53.338Z,119.70
2018-03-03T19:14:22.475Z,129.20
2018-03-03T19:16:51.606Z,140.57
2018-03-03T19:19:20.783Z,131.13
2018-03-03T19:21:49.940Z,139.00
2018-03-03T19:24:19.097Z,142.00
2018-03-03T19:26:48.289Z,141.70
2018-03-03T19:29:17.561Z,142.20
2018-03-03T19:31:46.710Z,140.77
2018-03-03T19:34:15.908Z,146.87
2018-03-03T19:36:45.053Z,147.23
2018-03-03T19:39:14.206Z,158.67
2018-03-03T19:41:43.392Z,151.23
2018-03-03T19:44:12.580Z,169.70
2018-03-03T19:46:41.721Z,158.33
2018-03-03T19:49:10.901Z,166.87
2018-03-03T19:51:40.043Z,172.53
2018-03-03T19:54:09.194Z,176.63
2018-03-03T19:56:38.382Z,169.90
2018-03-03T19:59:07.561Z,179.50
2018-03-03T20:01:36.708Z,172.73
2018-03-03T20:04:05.851Z,171.30
2018-03-03T20:06:35.048Z,172.10
2018-03-03T20:09:04.203Z,187.87
2018-03-03T20:11:33.382Z,184.73
2018-03-03T20:14:02.562Z,200.47
2018-03-03T20:16:31.715Z,192.93
2018-03-03T20:19:00.858Z,201.90
2018-03-03T20:21:30.036Z,189.83
2018-03-03T20:23:59.176Z,193.97
2018-03-03T20:26:28.323Z,197.67
2018-03-03T20:28:57.521Z,200.20
2018-03-03T20:31:26.703Z,198.17
2018-03-03T20:33:55.861Z,204.97
2018-03-03T20:36:25.006Z,208.43
2018-03-03T20:38:54.199Z,209.23
2018-03-03T20:41:23.400Z,203.43
2018-03-03T20:43:52.549Z,205.93
2018-03-03T20:46:21.689Z,219.70
2018-03-03T20:48:50.876Z,215.97
2018-03-03T20:51:20.023Z,224.97
2018-03-03T20:53:49.174Z,223.57
2018-03-03T20:56:18.347Z,223.23
2018-03-03T20:58:47.526Z,216.67
2018-03-03T21:01:16.690Z,240.87
2018-03-03T21:03:45.840Z,247.83
2018-03-03T21:06:15.002Z,227.77
2018-03-03T21:08:44.146Z,247.60
2018-03-03T21:11:31.029Z,231.20
2018-03-03T21:14:00.178Z,237.67
2018-03-03T21:16:29.340Z,272.70
2018-03-03T21:18:58.535Z,264.83
2018-03-03T21:21:27.694Z,270.30
2018-03-03T21:23:57.204Z,256.80
2018-03-03T21:26:26.429Z,246.97
2018-03-03T21:28:55.570Z,262.33
2018-03-03T21:31:24.723Z,251.20
2018-03-03T21:33:54.122Z,254.63
2018-03-03T21:36:23.284Z,240.70
2018-03-03T21:38:52.430Z,251.30
2018-03-03T21:41:21.663Z,269.63
2018-03-03T21:43:50.816Z,230.33
2018-03-03T21:46:19.966Z,255.40
2018-03-03T21:48:49.139Z,242.83
2018-03-03T21:51:18.396Z,222.00
2018-03-03T21:53:47.553Z,242.23
2018-03-03T21:56:16.738Z,235.80
2018-03-03T21:58:45.894Z,223.53
2018-03-03T22:01:15.047Z,214.90
2018-03-03T22:03:44.241Z,231.83
2018-03-03T22:06:13.385Z,197.77
2018-03-03T22:08:42.575Z,234.90
2018-03-03T22:11:11.852Z,226.00
2018-03-03T22:13:40.996Z,227.17
2018-03-03T22:16:10.146Z,213.43
2018-03-03T22:18:39.366Z,220.67
2018-03-03T22:21:08.505Z,217.37
2018-03-03T22:23:37.638Z,211.13
2018-03-03T22:26:06.824Z,213.97
2018-03-03T22:28:35.975Z,213.97
2018-03-03T22:31:05.154Z,208.63
2018-03-03T22:33:34.297Z,227.20
2018-03-03T22:36:03.466Z,215.90
2018-03-03T22:38:32.685Z,207.80
2018-03-03T22:41:03.107Z,219.50
2018-03-03T22:43:32.258Z,204.87
2018-03-03T22:46:01.442Z,208.77
2018-03-03T22:48:30.662Z,190.37
2018-03-03T22:50:59.858Z,195.13
2018-03-03T22:53:28.990Z,198.30
2018-03-03T22:55:58.141Z,219.73
2018-03-03T22:58:27.313Z,211.10
2018-03-03T23:00:56.579Z,220.80
2018-03-03T23:03:25.761Z,210.90
2018-03-03T23:05:54.949Z,194.63
2018-03-03T23:08:24.078Z,200.10
2018-03-03T23:10:53.279Z,189.17
2018-03-03T23:13:22.419Z,194.90
2018-03-03T23:15:51.551Z,198.43
2018-03-03T23:18:20.713Z,184.90
2018-03-03T23:20:49.865Z,216.93
2018-03-03T23:23:19.024Z,216.90
2018-03-03T23:25:48.204Z,213.23
2018-03-03T23:28:17.620Z,191.80
2018-03-03T23:30:46.961Z,198.30
2018-03-03T23:33:16.127Z,189.90
2018-03-03T23:35:45.326Z,200.60
2018-03-03T23:38:14.611Z,193.40
2018-03-03T23:40:43.773Z,205.33
2018-03-03T23:43:12.926Z,174.30
2018-03-03T23:45:42.091Z,184.07
2018-03-03T23:48:11.418Z,202.73
2018-03-03T23:50:40.572Z,195.47
2018-03-03T23:53:09.745Z,196.57
2018-03-03T23:55:38.890Z,186.07
2018-03-03T23:58:08.028Z,188.63
